Time;durP1;ratioP1;P1;durP2;ratioP2;P2;SDS_P1;SDS_P2;PMS_P1;PMS_P2;Temp;Humidity;BMP_temperature;BMP_pressure;BME280_temperature;BME280_humidity;BME280_pressure;Samples;Min_cycle;Max_cycle;Signal;HPM_P1;HPM_P2
2022/07/21 00:00:33;;;;;;;12.07;7.13;;;19.80;99.90;;;;;;5122456;27;20048;-64
2022/07/21 00:02:59;;;;;;;9.98;7.05;;;19.80;99.90;;;;;;5086832;28;20036;-64
2022/07/21 00:05:25;;;;;;;11.13;6.88;;;19.80;99.90;;;;;;5098988;28;20166;-64
2022/07/21 00:07:51;;;;;;;9.15;6.85;;;19.80;99.90;;;;;;5085747;28;20456;-64
2022/07/21 00:10:18;;;;;;;9.32;7.18;;;19.70;99.90;;;;;;5090107;28;20085;-65
2022/07/21 00:12:44;;;;;;;9.15;6.85;;;19.80;99.90;;;;;;5090039;28;20516;-64
2022/07/21 00:15:12;;;;;;;10.35;7.45;;;19.80;99.90;;;;;;5090627;28;20036;-65
2022/07/21 00:17:38;;;;;;;11.20;6.88;;;19.70;99.90;;;;;;5090439;28;20768;-65
2022/07/21 00:20:06;;;;;;;9.88;7.30;;;19.70;99.90;;;;;;5092178;28;20040;-64
2022/07/21 00:22:32;;;;;;;11.23;7.18;;;19.70;99.90;;;;;;5086294;28;20039;-64
2022/07/21 00:24:58;;;;;;;13.02;7.75;;;19.70;99.90;;;;;;5091416;28;20390;-65
2022/07/21 00:27:25;;;;;;;11.98;7.40;;;19.70;99.90;;;;;;5092005;28;20184;-64
2022/07/21 00:29:51;;;;;;;12.50;8.30;;;19.70;99.90;;;;;;5088403;28;20498;-64
2022/07/21 00:32:17;;;;;;;10.85;7.95;;;19.70;99.90;;;;;;5089461;28;20445;-65
2022/07/21 00:34:43;;;;;;;9.75;7.75;;;19.70;99.90;;;;;;5098456;28;20047;-65
2022/07/21 00:37:10;;;;;;;12.02;8.05;;;19.60;99.90;;;;;;5091623;28;20486;-64
2022/07/21 00:39:36;;;;;;;9.23;7.75;;;19.70;99.90;;;;;;5082798;28;20040;-64
2022/07/21 00:42:02;;;;;;;11.93;8.63;;;19.60;99.90;;;;;;5089930;28;20036;-64
2022/07/21 00:44:28;;;;;;;12.57;8.70;;;19.60;99.90;;;;;;5084688;28;20036;-65
2022/07/21 00:46:54;;;;;;;11.85;7.97;;;19.60;99.90;;;;;;5120792;27;20510;-64
2022/07/21 00:49:20;;;;;;;11.02;9.25;;;19.60;99.90;;;;;;5089246;28;20043;-64
2022/07/21 00:51:47;;;;;;;12.60;9.50;;;19.50;99.90;;;;;;5073960;28;20040;-64
2022/07/21 00:54:15;;;;;;;12.73;10.00;;;19.50;99.90;;;;;;5088983;28;20051;-64
2022/07/21 00:56:42;;;;;;;13.35;9.82;;;19.50;99.90;;;;;;5090419;28;20036;-64
2022/07/21 00:59:08;;;;;;;13.48;10.23;;;19.50;99.90;;;;;;5086886;28;20097;-64
2022/07/21 01:01:33;;;;;;;12.68;9.65;;;19.50;99.90;;;;;;5090315;28;20486;-64
2022/07/21 01:03:59;;;;;;;12.27;9.60;;;19.40;99.90;;;;;;5091133;28;20081;-64
2022/07/21 01:06:25;;;;;;;16.67;10.43;;;19.40;99.90;;;;;;5090682;28;20238;-64
2022/07/21 01:08:51;;;;;;;16.10;9.90;;;19.40;99.90;;;;;;5088553;28;20051;-64
2022/07/21 01:11:20;;;;;;;13.55;11.02;;;19.50;99.90;;;;;;5084295;28;20566;-64
2022/07/21 01:13:46;;;;;;;12.85;11.23;;;19.40;99.90;;;;;;5095723;28;20040;-64
2022/07/21 01:16:11;;;;;;;12.98;10.77;;;19.40;99.90;;;;;;5088654;28;20411;-64
2022/07/21 01:18:37;;;;;;;13.05;10.60;;;19.40;99.90;;;;;;5117337;27;20043;-64
2022/07/21 01:21:25;;;;;;;15.32;10.57;;;19.40;99.90;;;;;;5119332;27;20054;-64
2022/07/21 01:23:51;;;;;;;16.00;12.18;;;19.40;99.90;;;;;;5088935;28;20468;-65
2022/07/21 01:26:16;;;;;;;16.08;12.25;;;19.40;99.90;;;;;;5114529;27;20044;-64
2022/07/21 01:28:42;;;;;;;16.05;12.77;;;19.40;99.90;;;;;;5081976;28;20079;-65
2022/07/21 01:31:07;;;;;;;14.20;11.65;;;19.40;99.90;;;;;;5080171;28;20576;-65
2022/07/21 01:33:33;;;;;;;15.43;11.35;;;19.40;99.90;;;;;;5088879;28;20394;-65
2022/07/21 01:35:59;;;;;;;15.98;13.10;;;19.40;99.90;;;;;;5088162;28;20093;-64
2022/07/21 01:43:52;;;;;;;17.30;15.02;;;19.40;99.90;;;;;;5118038;27;20480;-65
2022/07/21 01:46:18;;;;;;;18.38;14.48;;;19.40;99.90;;;;;;5094510;28;20048;-65
2022/07/21 01:48:45;;;;;;;17.67;14.85;;;19.40;99.90;;;;;;5115485;27;20044;-65
2022/07/21 01:51:11;;;;;;;18.10;15.35;;;19.40;99.90;;;;;;5093503;28;20044;-64
2022/07/21 01:53:38;;;;;;;19.83;15.15;;;19.40;99.90;;;;;;5123184;27;20074;-64
2022/07/21 01:56:04;;;;;;;21.00;17.35;;;19.40;99.90;;;;;;5088277;28;20036;-65
2022/07/21 01:58:30;;;;;;;18.77;16.20;;;19.40;99.90;;;;;;5087389;28;20036;-64
2022/07/21 02:00:56;;;;;;;17.80;15.90;;;19.40;99.90;;;;;;5088120;28;20071;-65
2022/07/21 02:03:22;;;;;;;17.80;15.88;;;19.40;99.90;;;;;;5085343;28;20093;-64
2022/07/21 02:05:48;;;;;;;20.15;18.05;;;19.50;99.90;;;;;;5084076;28;20036;-65
2022/07/21 02:08:13;;;;;;;19.67;17.65;;;19.50;99.90;;;;;;5085397;28;20050;-64
2022/07/21 02:10:39;;;;;;;20.08;16.92;;;19.50;99.90;;;;;;5121057;27;20044;-65
2022/07/21 02:13:05;;;;;;;18.92;16.95;;;19.50;99.90;;;;;;5111416;27;20506;-65
2022/07/21 02:15:31;;;;;;;21.02;17.55;;;19.50;99.90;;;;;;5087654;28;20456;-64
2022/07/21 02:17:57;;;;;;;22.17;18.83;;;19.50;99.90;;;;;;5089654;28;20044;-64
2022/07/21 02:20:23;;;;;;;20.50;17.73;;;19.50;99.90;;;;;;5069341;28;20055;-64
2022/07/21 02:22:51;;;;;;;20.30;18.20;;;19.50;99.90;;;;;;5095129;28;20028;-65
2022/07/21 02:25:17;;;;;;;22.15;19.17;;;19.50;99.90;;;;;;5088354;28;20054;-63
2022/07/21 02:27:44;;;;;;;22.77;20.35;;;19.50;99.90;;;;;;5083336;28;20032;-65
2022/07/21 02:30:12;;;;;;;20.98;18.00;;;19.50;99.90;;;;;;5086213;28;20478;-65
2022/07/21 02:32:37;;;;;;;22.73;20.30;;;19.50;99.90;;;;;;5091191;28;20040;-64
2022/07/21 02:35:04;;;;;;;19.85;17.60;;;19.50;99.90;;;;;;5089915;28;20043;-65
2022/07/21 02:37:29;;;;;;;21.33;19.05;;;19.50;99.90;;;;;;5087449;28;20052;-64
2022/07/21 02:39:55;;;;;;;20.40;18.15;;;19.50;99.90;;;;;;5087669;28;20573;-64
2022/07/21 02:42:21;;;;;;;19.92;17.92;;;19.50;99.90;;;;;;5093105;28;20032;-65
2022/07/21 02:44:46;;;;;;;21.00;18.92;;;19.60;99.90;;;;;;5088523;28;20368;-64
2022/07/21 02:47:12;;;;;;;19.45;17.38;;;19.50;99.90;;;;;;5089799;28;20044;-64
2022/07/21 02:49:38;;;;;;;20.80;17.88;;;19.50;99.90;;;;;;5086652;28;20040;-64
2022/07/21 02:52:05;;;;;;;21.05;18.85;;;19.60;99.90;;;;;;5090201;28;20047;-65
2022/07/21 02:54:31;;;;;;;22.77;20.02;;;19.50;99.90;;;;;;5092074;28;20040;-64
2022/07/21 02:56:56;;;;;;;20.45;18.40;;;19.50;99.90;;;;;;5096453;28;20054;-64
2022/07/21 02:59:22;;;;;;;20.05;18.00;;;19.50;99.90;;;;;;5091618;28;20452;-65
2022/07/21 03:01:47;;;;;;;20.27;18.15;;;19.50;99.90;;;;;;5091008;28;20058;-64
2022/07/21 03:04:13;;;;;;;22.13;19.88;;;19.50;99.90;;;;;;5092581;28;20072;-64
2022/07/21 03:06:39;;;;;;;21.08;19.05;;;19.50;99.90;;;;;;5092235;28;20036;-64
2022/07/21 03:09:05;;;;;;;21.42;19.33;;;19.50;99.90;;;;;;5091538;28;20052;-64
2022/07/21 03:11:31;;;;;;;22.67;20.38;;;19.50;99.90;;;;;;5092085;28;20111;-65
2022/07/21 03:13:56;;;;;;;22.45;20.25;;;19.50;99.90;;;;;;5092763;28;20089;-64
2022/07/21 03:16:22;;;;;;;23.52;21.02;;;19.50;99.90;;;;;;5098394;28;20094;-65
2022/07/21 03:18:48;;;;;;;25.80;23.05;;;19.50;99.90;;;;;;5084566;28;20052;-64
2022/07/21 03:21:13;;;;;;;23.15;20.88;;;19.50;99.90;;;;;;5099822;28;20048;-65
2022/07/21 03:23:39;;;;;;;25.75;23.08;;;19.50;99.90;;;;;;5123170;27;20039;-65
2022/07/21 03:26:05;;;;;;;29.45;25.85;;;19.40;99.90;;;;;;5114865;27;20526;-64
2022/07/21 03:28:31;;;;;;;28.85;24.52;;;19.40;99.90;;;;;;5093638;28;20474;-65
2022/07/21 03:30:57;;;;;;;26.08;23.33;;;19.40;99.90;;;;;;5089533;28;20035;-64
2022/07/21 03:33:22;;;;;;;26.92;23.45;;;19.40;99.90;;;;;;5094459;28;20866;-65
2022/07/21 03:35:48;;;;;;;26.40;23.45;;;19.40;99.90;;;;;;5098811;28;20043;-64
2022/07/21 03:38:14;;;;;;;28.15;23.60;;;19.40;99.90;;;;;;5092177;28;20138;-64
2022/07/21 03:40:39;;;;;;;24.83;22.13;;;19.40;99.90;;;;;;5094588;28;20089;-65
2022/07/21 03:43:06;;;;;;;26.05;23.27;;;19.30;99.90;;;;;;5089449;28;20076;-64
2022/07/21 03:45:34;;;;;;;25.67;22.95;;;19.30;99.90;;;;;;5091538;28;20127;-64
2022/07/21 03:48:02;;;;;;;27.27;23.80;;;19.40;99.90;;;;;;5091419;28;20058;-64
2022/07/21 03:50:29;;;;;;;25.98;23.30;;;19.40;99.90;;;;;;5091422;28;20055;-64
2022/07/21 03:52:54;;;;;;;24.63;22.15;;;19.40;99.90;;;;;;5086671;28;20405;-64
2022/07/21 03:55:20;;;;;;;23.98;21.48;;;19.40;99.90;;;;;;5089991;28;20044;-64
2022/07/21 03:57:49;;;;;;;25.88;23.20;;;19.40;99.90;;;;;;5093110;28;20084;-64
2022/07/21 04:00:25;;;;;;;22.85;20.40;;;19.40;99.90;;;;;;5093717;28;20070;-64
2022/07/21 04:02:51;;;;;;;23.58;20.42;;;19.30;99.90;;;;;;5090626;28;20092;-64
2022/07/21 04:05:18;;;;;;;22.20;18.67;;;19.30;99.90;;;;;;5087516;28;20044;-64
2022/07/21 04:07:45;;;;;;;24.45;20.13;;;19.30;99.90;;;;;;5090646;28;20035;-65
2022/07/21 04:10:13;;;;;;;22.70;20.30;;;19.30;99.90;;;;;;5069886;28;20051;-64
2022/07/21 04:12:40;;;;;;;21.77;18.70;;;19.30;99.90;;;;;;5091510;28;20043;-64
2022/07/21 04:15:07;;;;;;;23.55;20.60;;;19.30;99.90;;;;;;5088688;28;20681;-64
2022/07/21 04:17:33;;;;;;;22.85;20.20;;;19.30;99.90;;;;;;5092756;28;20043;-65
2022/07/21 04:19:59;;;;;;;21.70;19.40;;;19.40;99.90;;;;;;5092822;28;20042;-64
2022/07/21 04:22:24;;;;;;;21.85;19.55;;;19.40;99.90;;;;;;5089328;28;20053;-64
2022/07/21 04:24:50;;;;;;;23.33;20.67;;;19.40;99.90;;;;;;5090110;28;20117;-64
2022/07/21 04:27:16;;;;;;;20.90;18.60;;;19.30;99.90;;;;;;5090253;28;20401;-64
2022/07/21 04:29:42;;;;;;;22.83;19.98;;;19.30;99.90;;;;;;5090274;28;20042;-64
2022/07/21 04:32:07;;;;;;;23.40;20.90;;;19.40;99.90;;;;;;5084715;28;20070;-64
2022/07/21 04:34:33;;;;;;;22.90;20.05;;;19.40;99.90;;;;;;5087485;28;20090;-65
2022/07/21 04:36:59;;;;;;;23.27;20.02;;;19.30;99.90;;;;;;5088491;28;20067;-64
2022/07/21 04:39:24;;;;;;;22.70;20.02;;;19.30;99.90;;;;;;5092377;28;20563;-64
2022/07/21 04:41:50;;;;;;;22.77;19.95;;;19.30;99.90;;;;;;5122859;27;20044;-64
2022/07/21 04:44:16;;;;;;;24.88;20.70;;;19.30;99.90;;;;;;5089466;28;20123;-64
2022/07/21 04:46:41;;;;;;;22.10;19.73;;;19.30;99.90;;;;;;5119837;27;20066;-64
2022/07/21 04:49:07;;;;;;;21.75;19.55;;;19.40;99.90;;;;;;5122503;27;20076;-65
2022/07/21 04:51:33;;;;;;;24.83;22.23;;;19.30;99.90;;;;;;5090755;28;20094;-64
2022/07/21 04:53:58;;;;;;;23.77;21.27;;;19.40;99.90;;;;;;5091161;28;20032;-64
2022/07/21 04:56:24;;;;;;;22.98;20.58;;;19.30;99.90;;;;;;5090954;28;20036;-64
2022/07/21 04:58:50;;;;;;;25.77;21.00;;;19.40;99.90;;;;;;5121241;27;20077;-64
2022/07/21 05:01:18;;;;;;;24.05;21.10;;;19.40;99.90;;;;;;5116112;27;20075;-65
2022/07/21 05:03:44;;;;;;;25.23;21.77;;;19.50;99.90;;;;;;5090467;28;20071;-64
2022/07/21 05:06:10;;;;;;;24.63;21.63;;;19.50;99.90;;;;;;5089430;28;20064;-65
2022/07/21 05:08:35;;;;;;;24.50;21.80;;;19.50;99.90;;;;;;5091292;28;20115;-64
2022/07/21 05:11:01;;;;;;;28.35;22.17;;;19.60;99.90;;;;;;5090835;28;20054;-65
2022/07/21 05:13:26;;;;;;;25.48;22.25;;;19.60;99.90;;;;;;5087346;28;20036;-64
2022/07/21 05:15:52;;;;;;;27.17;22.98;;;19.60;99.90;;;;;;5119699;27;20071;-65
2022/07/21 05:18:18;;;;;;;23.42;20.13;;;19.70;99.90;;;;;;5087778;28;20119;-64
2022/07/21 05:20:43;;;;;;;25.58;22.58;;;19.60;99.90;;;;;;5079283;28;20085;-64
2022/07/21 05:23:09;;;;;;;24.65;22.05;;;19.60;99.90;;;;;;5103922;27;20036;-64
2022/07/21 05:25:35;;;;;;;22.52;20.20;;;19.70;99.90;;;;;;5073783;28;20131;-65
2022/07/21 05:28:01;;;;;;;23.52;20.98;;;19.60;99.90;;;;;;5071850;28;20054;-64
2022/07/21 05:30:27;;;;;;;22.10;19.30;;;19.60;99.90;;;;;;5090249;28;20097;-64
2022/07/21 05:32:53;;;;;;;23.67;21.02;;;19.60;99.90;;;;;;5114372;27;20032;-64
2022/07/21 05:35:18;;;;;;;23.10;20.70;;;19.60;99.90;;;;;;5093229;28;20531;-65
2022/07/21 05:37:45;;;;;;;23.65;21.17;;;19.50;99.90;;;;;;5115956;27;20429;-64
2022/07/21 05:40:11;;;;;;;24.58;20.85;;;19.50;99.90;;;;;;5119737;27;20364;-64
2022/07/21 05:42:37;;;;;;;24.80;22.15;;;19.50;99.90;;;;;;5087182;28;20047;-64
2022/07/21 05:45:04;;;;;;;22.63;20.30;;;19.50;99.90;;;;;;5105833;28;20066;-64
2022/07/21 05:47:31;;;;;;;20.45;18.33;;;19.40;99.90;;;;;;5084888;28;20036;-64
2022/07/21 05:49:57;;;;;;;18.83;16.92;;;19.40;99.90;;;;;;5084349;28;20044;-64
2022/07/21 05:52:23;;;;;;;21.23;18.02;;;19.40;99.90;;;;;;5089850;28;20391;-64
2022/07/21 05:54:48;;;;;;;20.02;17.85;;;19.40;99.90;;;;;;5120103;27;20032;-64
2022/07/21 05:57:14;;;;;;;21.50;18.50;;;19.30;99.90;;;;;;5089455;28;20032;-65
2022/07/21 05:59:40;;;;;;;19.83;17.83;;;19.30;99.90;;;;;;5092522;28;20471;-64
2022/07/21 06:02:06;;;;;;;20.80;18.67;;;19.20;99.90;;;;;;5089958;28;20039;-64
2022/07/21 06:04:32;;;;;;;21.75;19.42;;;19.20;99.90;;;;;;5085694;28;21012;-64
2022/07/21 06:06:57;;;;;;;22.33;19.77;;;19.10;99.90;;;;;;5089040;28;20032;-64
2022/07/21 06:09:23;;;;;;;21.52;17.83;;;19.10;99.90;;;;;;5123830;27;20409;-64
2022/07/21 06:11:48;;;;;;;22.30;18.50;;;19.10;99.90;;;;;;5088134;28;20382;-64
2022/07/21 06:14:14;;;;;;;20.70;18.48;;;19.20;99.90;;;;;;5088861;28;20055;-65
2022/07/21 06:16:40;;;;;;;24.10;18.80;;;19.20;99.90;;;;;;5090546;28;20028;-64
2022/07/21 06:19:08;;;;;;;22.50;19.30;;;19.20;99.90;;;;;;5090237;28;20036;-64
2022/07/21 06:21:35;;;;;;;22.15;18.23;;;19.20;99.90;;;;;;5089357;28;20040;-65
2022/07/21 06:24:01;;;;;;;18.92;16.92;;;19.20;99.90;;;;;;5089917;28;20139;-64
2022/07/21 06:26:26;;;;;;;19.83;17.73;;;19.20;99.90;;;;;;5089208;28;20057;-65
2022/07/21 06:28:53;;;;;;;18.80;16.52;;;19.20;99.90;;;;;;5090298;28;20050;-64
2022/07/21 06:31:19;;;;;;;20.63;17.50;;;19.20;99.90;;;;;;5088960;28;20051;-64
2022/07/21 06:33:45;;;;;;;21.63;18.35;;;19.30;99.90;;;;;;5088935;28;20390;-64
2022/07/21 06:36:10;;;;;;;19.05;17.00;;;19.40;99.90;;;;;;5123291;28;20432;-64
2022/07/21 06:38:36;;;;;;;20.70;18.50;;;19.40;99.90;;;;;;5090055;28;20041;-64
2022/07/21 06:41:02;;;;;;;21.55;18.42;;;19.50;99.90;;;;;;5090293;28;20028;-64
2022/07/21 06:43:27;;;;;;;21.20;18.92;;;19.50;99.90;;;;;;5090001;28;20032;-65
2022/07/21 06:45:53;;;;;;;19.70;17.70;;;19.60;99.90;;;;;;5123204;28;20075;-64
2022/07/21 06:48:19;;;;;;;21.73;18.63;;;19.60;99.90;;;;;;5090259;28;20036;-65
2022/07/21 06:50:45;;;;;;;21.48;18.65;;;19.70;99.90;;;;;;5090698;28;20048;-65
2022/07/21 06:53:10;;;;;;;22.00;19.30;;;19.60;99.90;;;;;;5090469;28;20043;-65
2022/07/21 06:55:36;;;;;;;21.02;18.83;;;19.60;99.90;;;;;;5090471;28;20482;-65
2022/07/21 06:58:13;;;;;;;22.48;18.20;;;19.70;99.90;;;;;;5089053;28;20477;-64
2022/07/21 07:00:39;;;;;;;21.77;19.20;;;19.70;99.90;;;;;;5088829;28;20088;-65
2022/07/21 07:03:05;;;;;;;23.00;18.90;;;19.80;99.90;;;;;;5090668;28;20091;-64
2022/07/21 07:05:30;;;;;;;22.50;18.98;;;19.80;99.90;;;;;;5089093;28;20406;-65
2022/07/21 07:07:56;;;;;;;25.27;20.55;;;19.90;99.90;;;;;;5123222;28;20039;-65
2022/07/21 07:10:22;;;;;;;20.88;18.60;;;19.90;99.90;;;;;;5123009;28;20036;-65
2022/07/21 07:12:47;;;;;;;23.90;20.23;;;20.00;99.90;;;;;;5123280;28;20040;-64
2022/07/21 07:15:13;;;;;;;23.13;20.17;;;20.00;99.90;;;;;;5122922;28;20044;-64
2022/07/21 07:17:39;;;;;;;29.98;21.85;;;19.90;99.90;;;;;;5090318;28;20418;-64
2022/07/21 07:20:06;;;;;;;22.60;19.67;;;19.90;99.90;;;;;;5089102;28;20103;-65
2022/07/21 07:22:32;;;;;;;26.20;21.00;;;19.90;99.90;;;;;;5090089;28;20440;-64
2022/07/21 07:24:58;;;;;;;23.95;19.60;;;19.90;99.90;;;;;;5088829;28;20051;-64
2022/07/21 07:27:24;;;;;;;23.60;20.55;;;19.90;99.90;;;;;;5122639;28;20028;-65
2022/07/21 07:29:49;;;;;;;26.45;21.88;;;19.90;99.90;;;;;;5088910;28;20040;-64
2022/07/21 07:32:15;;;;;;;24.60;20.98;;;19.90;99.90;;;;;;5090233;28;20135;-65
2022/07/21 07:34:41;;;;;;;24.23;21.13;;;19.90;99.90;;;;;;5122899;27;20071;-65
2022/07/21 07:37:07;;;;;;;26.20;22.67;;;19.90;99.90;;;;;;5125315;27;20094;-64
2022/07/21 07:39:33;;;;;;;28.55;23.45;;;20.00;99.90;;;;;;5092119;28;20054;-64
2022/07/21 07:41:58;;;;;;;25.33;22.13;;;20.10;99.90;;;;;;5092460;28;20533;-64
2022/07/21 07:44:24;;;;;;;28.52;24.00;;;20.20;99.90;;;;;;5126103;27;20135;-64
2022/07/21 07:46:50;;;;;;;28.83;23.60;;;20.60;99.90;;;;;;5126430;27;20386;-64
2022/07/21 07:49:16;;;;;;;28.45;24.30;;;21.00;99.90;;;;;;5092239;28;20548;-65
2022/07/21 07:51:42;;;;;;;29.73;25.08;;;21.40;99.90;;;;;;5092531;28;20043;-65
2022/07/21 07:54:08;;;;;;;28.50;24.02;;;21.60;99.90;;;;;;5092119;28;20070;-65
2022/07/21 07:56:33;;;;;;;32.22;24.42;;;21.70;99.90;;;;;;5126066;27;20047;-64
2022/07/21 07:58:59;;;;;;;29.90;26.42;;;21.50;99.90;;;;;;5093603;28;20123;-65
2022/07/21 08:01:25;;;;;;;29.50;25.35;;;21.40;99.90;;;;;;5092979;28;20048;-64
2022/07/21 08:03:50;;;;;;;30.88;26.08;;;21.30;99.90;;;;;;5086456;28;20039;-65
2022/07/21 08:06:16;;;;;;;30.27;26.90;;;21.20;99.90;;;;;;5091761;28;20040;-65
2022/07/21 08:08:42;;;;;;;34.63;27.65;;;21.10;99.90;;;;;;5092388;28;20024;-65
2022/07/21 08:11:09;;;;;;;32.50;26.63;;;21.00;99.90;;;;;;5092747;28;20122;-65
2022/07/21 08:13:35;;;;;;;31.05;27.40;;;20.90;99.90;;;;;;5091088;28;20063;-64
2022/07/21 08:16:00;;;;;;;31.02;26.23;;;20.90;99.90;;;;;;5093019;28;20036;-64
2022/07/21 08:18:27;;;;;;;29.23;26.05;;;21.00;99.90;;;;;;5091587;28;20044;-64
2022/07/21 08:20:53;;;;;;;29.63;26.25;;;21.20;99.90;;;;;;5092511;28;20107;-65
2022/07/21 08:23:18;;;;;;;28.98;24.95;;;21.40;99.90;;;;;;5092585;28;20126;-64
2022/07/21 08:25:44;;;;;;;27.42;23.85;;;21.50;99.90;;;;;;5092346;28;20040;-65
2022/07/21 08:28:11;;;;;;;30.33;25.52;;;21.70;99.90;;;;;;5091557;28;20405;-64
2022/07/21 08:30:37;;;;;;;30.73;25.23;;;21.90;99.90;;;;;;5090826;28;20070;-65
2022/07/21 08:33:03;;;;;;;32.28;27.23;;;21.90;99.90;;;;;;5092383;28;20111;-65
2022/07/21 08:35:29;;;;;;;30.23;25.25;;;21.70;99.90;;;;;;5091840;28;20040;-64
2022/07/21 08:38:01;;;;;;;31.08;26.50;;;21.70;99.90;;;;;;5092295;28;20048;-65
2022/07/21 08:40:28;;;;;;;;;;;21.70;99.90;;;;;;5092984;28;20035;-64
2022/07/21 08:42:54;;;;;;;33.38;27.67;;;21.60;99.90;;;;;;5091223;28;19923;-64
2022/07/21 08:45:21;;;;;;;36.63;30.00;;;21.30;99.90;;;;;;5091237;28;20044;-65
2022/07/21 08:47:50;;;;;;;35.60;30.48;;;21.10;99.90;;;;;;5090923;28;20090;-64
2022/07/21 08:50:16;;;;;;;37.50;30.60;;;21.00;99.90;;;;;;5091064;28;20063;-64
2022/07/21 08:52:42;;;;;;;33.97;28.05;;;20.90;99.90;;;;;;5090850;28;20036;-64
2022/07/21 08:55:08;;;;;;;34.45;29.20;;;21.00;99.90;;;;;;5090951;28;20043;-64
2022/07/21 08:57:33;;;;;;;39.55;31.20;;;21.00;99.90;;;;;;5107618;28;20406;-64
2022/07/21 08:59:59;;;;;;;37.83;30.27;;;20.90;99.90;;;;;;5124991;27;20426;-65
2022/07/21 09:02:29;;;;;;;38.20;30.92;;;21.00;99.90;;;;;;5092218;28;20498;-64
2022/07/21 09:04:55;;;;;;;34.03;27.60;;;21.00;99.90;;;;;;5090481;28;20486;-64
2022/07/21 09:07:22;;;;;;;33.88;28.13;;;21.00;99.90;;;;;;5092124;28;20032;-64
2022/07/21 09:09:56;;;;;;;33.97;28.30;;;21.10;99.90;;;;;;5090495;28;20054;-65
2022/07/21 09:12:22;;;;;;;31.48;25.13;;;21.10;99.90;;;;;;5090818;28;20386;-65
2022/07/21 09:14:49;;;;;;;32.15;26.48;;;21.10;99.90;;;;;;5091941;28;20035;-65
2022/07/21 09:17:17;;;;;;;31.33;25.10;;;21.10;99.90;;;;;;5091915;28;20525;-64
2022/07/21 09:19:46;;;;;;;30.08;24.42;;;21.10;99.90;;;;;;5091487;28;20043;-65
2022/07/21 09:22:18;;;;;;;30.50;24.27;;;21.00;99.90;;;;;;5090464;28;20044;-64
2022/07/21 09:24:49;;;;;;;28.95;23.00;;;21.00;99.90;;;;;;5090317;28;20533;-65
2022/07/21 09:27:25;;;;;;;30.63;23.13;;;21.00;99.90;;;;;;5090476;28;20166;-64
2022/07/21 09:29:59;;;;;;;27.02;22.40;;;21.00;99.90;;;;;;5091516;28;20040;-65
2022/07/21 09:32:27;;;;;;;29.45;22.23;;;21.10;99.90;;;;;;5090944;28;20036;-65
2022/07/21 09:34:58;;;;;;;25.38;21.27;;;21.10;99.90;;;;;;5091596;28;20062;-65
2022/07/21 09:37:24;;;;;;;24.10;19.58;;;21.20;99.90;;;;;;5090167;28;20056;-65
2022/07/21 09:39:54;;;;;;;25.50;19.17;;;21.20;99.90;;;;;;5124170;27;20047;-64
2022/07/21 09:42:29;;;;;;;24.88;20.02;;;21.30;99.90;;;;;;5090221;28;20043;-64
2022/07/21 09:45:06;;;;;;;26.98;21.60;;;21.30;99.90;;;;;;5091545;28;20050;-64
2022/07/21 09:47:33;;;;;;;24.25;19.77;;;21.30;99.90;;;;;;5090185;28;20364;-65
2022/07/21 09:50:00;;;;;;;22.85;19.52;;;21.40;99.90;;;;;;5089846;28;20057;-64
2022/07/21 09:52:35;;;;;;;20.88;18.38;;;21.40;99.90;;;;;;5090407;28;20093;-64
2022/07/21 09:55:10;;;;;;;26.50;19.10;;;21.50;99.90;;;;;;5086128;28;20083;-65
2022/07/21 09:57:36;;;;;;;21.85;17.30;;;21.40;99.90;;;;;;5090932;28;20090;-65
2022/07/21 10:00:22;;;;;;;24.48;19.02;;;21.40;99.90;;;;;;5090213;28;20067;-64
2022/07/21 10:02:49;;;;;;;23.38;19.10;;;21.50;99.90;;;;;;5088937;28;20056;-64
2022/07/21 10:05:20;;;;;;;23.70;17.77;;;21.40;99.90;;;;;;5089292;28;20394;-64
2022/07/21 10:07:48;;;;;;;24.05;19.48;;;21.40;99.90;;;;;;5090925;28;20032;-64
2022/07/21 10:10:15;;;;;;;22.65;18.52;;;21.40;99.90;;;;;;5089617;28;20427;-64
2022/07/21 10:12:42;;;;;;;25.83;18.85;;;21.40;99.90;;;;;;5090376;28;20083;-65
2022/07/21 10:15:08;;;;;;;20.90;17.52;;;21.30;99.90;;;;;;5088933;28;20084;-65
2022/07/21 10:17:34;;;;;;;24.02;18.25;;;21.40;99.90;;;;;;5089170;28;20040;-64
2022/07/21 10:20:24;;;;;;;21.67;18.15;;;21.40;99.90;;;;;;5123345;27;20394;-64
2022/07/21 10:23:27;;;;;;;22.23;17.92;;;21.40;99.90;;;;;;5089091;28;20119;-64
2022/07/21 10:25:53;;;;;;;23.77;18.23;;;21.40;99.90;;;;;;5088182;28;20402;-64
2022/07/21 10:28:27;;;;;;;20.83;17.70;;;21.50;99.90;;;;;;5089387;28;20040;-64
2022/07/21 10:30:55;;;;;;;25.90;19.58;;;21.50;99.90;;;;;;5090842;28;20076;-65
2022/07/21 10:33:41;;;;;;;25.67;19.77;;;21.60;99.90;;;;;;5089710;28;20610;-65
2022/07/21 10:36:08;;;;;;;24.63;19.60;;;21.50;99.90;;;;;;5089049;28;20044;-64
2022/07/21 10:38:35;;;;;;;25.20;21.73;;;21.50;99.90;;;;;;5090627;28;20085;-64
2022/07/21 10:41:02;;;;;;;27.85;22.45;;;21.60;99.90;;;;;;5089032;28;20040;-64
2022/07/21 10:43:28;;;;;;;27.95;23.55;;;21.70;99.90;;;;;;5089472;28;20075;-65
2022/07/21 10:45:54;;;;;;;22.63;20.13;;;21.70;99.90;;;;;;5123183;28;20111;-64
2022/07/21 10:48:39;;;;;;;29.85;25.63;;;21.90;99.90;;;;;;5090468;28;20043;-64
2022/07/21 10:51:09;;;;;;;32.95;27.60;;;21.90;99.90;;;;;;5088977;28;20047;-65
2022/07/21 10:53:35;;;;;;;31.48;26.52;;;21.90;99.90;;;;;;5089123;28;20068;-64
2022/07/21 10:56:01;;;;;;;29.88;24.55;;;22.00;99.90;;;;;;5123006;28;20039;-64
2022/07/21 10:58:47;;;;;;;26.92;24.02;;;22.00;99.90;;;;;;5123561;28;20808;-65
2022/07/21 11:01:27;;;;;;;27.13;24.17;;;22.00;99.90;;;;;;5090279;28;20123;-64
2022/07/21 11:04:10;;;;;;;30.20;23.05;;;22.00;99.90;;;;;;5089075;28;20473;-64
2022/07/21 11:06:38;;;;;;;31.95;24.25;;;22.00;99.90;;;;;;5090705;28;20063;-64
2022/07/21 11:09:04;;;;;;;28.05;23.80;;;22.00;99.90;;;;;;5089206;28;20487;-65
2022/07/21 11:11:34;;;;;;;29.38;23.45;;;21.90;99.90;;;;;;5124997;27;20036;-65
2022/07/21 11:14:13;;;;;;;29.35;24.42;;;21.80;99.90;;;;;;5094386;28;20093;-65
2022/07/21 11:16:41;;;;;;;28.08;23.20;;;21.70;99.90;;;;;;5094237;28;20085;-65
2022/07/21 11:19:30;;;;;;;32.22;22.27;;;21.70;99.90;;;;;;5092767;28;20050;-65
2022/07/21 11:21:59;;;;;;;25.02;17.88;;;21.70;99.90;;;;;;5092871;28;20071;-65
2022/07/21 11:24:26;;;;;;;19.33;16.48;;;21.50;99.90;;;;;;5092477;28;20051;-65
2022/07/21 11:26:56;;;;;;;20.27;16.10;;;21.40;99.90;;;;;;5092631;28;20047;-65
2022/07/21 11:29:22;;;;;;;21.63;17.98;;;21.40;99.90;;;;;;5092320;28;20040;-65
2022/07/21 11:31:49;;;;;;;19.45;15.90;;;21.50;99.90;;;;;;5093863;28;20031;-64
2022/07/21 11:34:15;;;;;;;19.80;17.25;;;21.40;99.90;;;;;;5126308;27;20052;-65
2022/07/21 11:36:41;;;;;;;21.65;17.17;;;21.50;99.90;;;;;;5092227;28;20085;-65
2022/07/21 11:39:12;;;;;;;24.42;18.65;;;21.50;99.90;;;;;;5092338;28;20372;-65
2022/07/21 11:41:40;;;;;;;24.58;18.73;;;21.50;99.90;;;;;;5092474;28;20506;-64
2022/07/21 11:44:08;;;;;;;20.55;17.50;;;21.40;99.90;;;;;;5092133;28;20040;-65
2022/07/21 11:46:51;;;;;;;20.83;17.90;;;21.40;99.90;;;;;;5071351;28;20516;-65
2022/07/21 11:49:18;;;;;;;21.48;19.17;;;21.40;99.90;;;;;;5092836;28;20032;-64
2022/07/21 11:51:49;;;;;;;19.75;16.58;;;21.40;99.90;;;;;;5125576;27;20044;-64
2022/07/21 11:54:23;;;;;;;19.65;17.38;;;21.30;99.90;;;;;;5091785;28;20074;-65
2022/07/21 11:56:51;;;;;;;19.98;17.55;;;21.20;99.90;;;;;;5091918;28;20044;-65
2022/07/21 11:59:16;;;;;;;21.25;18.88;;;21.20;99.90;;;;;;5092858;28;20036;-65
2022/07/21 12:01:54;;;;;;;19.38;17.27;;;21.20;99.90;;;;;;5108651;28;20038;-64
2022/07/21 12:04:27;;;;;;;18.40;16.40;;;21.10;99.90;;;;;;5090971;28;20044;-65
2022/07/21 12:06:53;;;;;;;23.58;18.05;;;21.00;99.90;;;;;;5091355;28;20115;-65
2022/07/21 12:09:19;;;;;;;20.83;17.77;;;21.00;99.90;;;;;;5092535;28;20115;-64
2022/07/21 12:11:45;;;;;;;19.15;17.02;;;20.90;99.90;;;;;;5092881;28;20081;-65
2022/07/21 12:14:11;;;;;;;20.20;18.05;;;20.80;99.90;;;;;;5092757;28;20433;-65
2022/07/21 12:16:49;;;;;;;22.80;19.92;;;20.80;99.90;;;;;;5124736;27;20039;-64
2022/07/21 12:19:16;;;;;;;25.75;20.27;;;20.50;99.90;;;;;;5092904;28;20087;-64
2022/07/21 12:21:50;;;;;;;25.90;21.20;;;20.40;99.90;;;;;;5090724;28;20044;-65
2022/07/21 12:24:16;;;;;;;23.85;21.25;;;20.30;99.90;;;;;;5091541;28;20553;-65
2022/07/21 12:26:42;;;;;;;23.50;20.33;;;20.20;99.90;;;;;;5092559;28;20032;-65
2022/07/21 12:29:08;;;;;;;24.48;19.92;;;20.10;99.90;;;;;;5092699;28;20406;-65
2022/07/21 12:31:35;;;;;;;23.90;20.27;;;20.10;99.90;;;;;;5125220;27;20036;-65
2022/07/21 12:34:12;;;;;;;28.75;23.20;;;20.20;99.90;;;;;;5091293;28;20036;-64